sensor_id;sensor_type;location;lat;lon;timestamp;temperature;humidity
10143;DHT22;5112;54.088;13.446;2023-05-13T00:07:54;10.30;99.90
10143;DHT22;5112;54.088;13.446;2023-05-13T00:17:57;10.10;99.90
10143;DHT22;5112;54.088;13.446;2023-05-13T00:27:59;10.00;99.90
10143;DHT22;5112;54.088;13.446;2023-05-13T00:38:02;9.80;99.90
10143;DHT22;5112;54.088;13.446;2023-05-13T00:48:05;9.80;99.90
10143;DHT22;5112;54.088;13.446;2023-05-13T00:58:08;9.70;99.90
10143;DHT22;5112;54.088;13.446;2023-05-13T01:08:15;9.70;99.90
10143;DHT22;5112;54.088;13.446;2023-05-13T01:18:26;9.70;99.90
10143;DHT22;5112;54.088;13.446;2023-05-13T01:28:30;9.70;99.90
10143;DHT22;5112;54.088;13.446;2023-05-13T01:38:32;9.70;99.90
10143;DHT22;5112;54.088;13.446;2023-05-13T01:48:36;9.60;99.90
10143;DHT22;5112;54.088;13.446;2023-05-13T01:58:37;9.40;99.90
10143;DHT22;5112;54.088;13.446;2023-05-13T02:08:41;9.30;99.90
10143;DHT22;5112;54.088;13.446;2023-05-13T02:18:42;9.30;99.90
10143;DHT22;5112;54.088;13.446;2023-05-13T02:28:46;9.20;99.90
10143;DHT22;5112;54.088;13.446;2023-05-13T02:38:47;9.10;99.90
10143;DHT22;5112;54.088;13.446;2023-05-13T02:48:50;9.10;99.90
10143;DHT22;5112;54.088;13.446;2023-05-13T02:58:52;9.10;99.90
10143;DHT22;5112;54.088;13.446;2023-05-13T03:08:55;9.10;99.90
10143;DHT22;5112;54.088;13.446;2023-05-13T03:18:57;9.20;99.90
10143;DHT22;5112;54.088;13.446;2023-05-13T03:29:00;9.20;99.90
10143;DHT22;5112;54.088;13.446;2023-05-13T03:39:02;9.20;99.90
10143;DHT22;5112;54.088;13.446;2023-05-13T03:49:05;9.30;99.90
10143;DHT22;5112;54.088;13.446;2023-05-13T03:59:07;9.50;99.90
10143;DHT22;5112;54.088;13.446;2023-05-13T04:09:10;9.80;99.90
10143;DHT22;5112;54.088;13.446;2023-05-13T04:19:12;10.40;99.90
10143;DHT22;5112;54.088;13.446;2023-05-13T04:29:15;11.60;99.90
10143;DHT22;5112;54.088;13.446;2023-05-13T04:39:17;12.80;99.90
10143;DHT22;5112;54.088;13.446;2023-05-13T04:49:20;12.80;99.90
10143;DHT22;5112;54.088;13.446;2023-05-13T04:59:22;13.00;99.90
10143;DHT22;5112;54.088;13.446;2023-05-13T05:09:24;13.20;99.90
10143;DHT22;5112;54.088;13.446;2023-05-13T05:19:26;13.60;99.90
10143;DHT22;5112;54.088;13.446;2023-05-13T05:29:29;14.20;99.90
10143;DHT22;5112;54.088;13.446;2023-05-13T05:39:31;14.70;99.90
10143;DHT22;5112;54.088;13.446;2023-05-13T05:49:36;15.00;99.90
10143;DHT22;5112;54.088;13.446;2023-05-13T05:59:37;15.40;99.90
10143;DHT22;5112;54.088;13.446;2023-05-13T06:09:40;15.70;99.90
10143;DHT22;5112;54.088;13.446;2023-05-13T06:19:42;16.10;99.90
10143;DHT22;5112;54.088;13.446;2023-05-13T06:29:45;16.70;99.90
10143;DHT22;5112;54.088;13.446;2023-05-13T06:39:47;17.10;99.90
10143;DHT22;5112;54.088;13.446;2023-05-13T06:49:50;17.60;99.90
10143;DHT22;5112;54.088;13.446;2023-05-13T06:59:51;17.90;99.90
10143;DHT22;5112;54.088;13.446;2023-05-13T07:09:54;18.40;99.90
10143;DHT22;5112;54.088;13.446;2023-05-13T07:19:56;18.70;99.00
10143;DHT22;5112;54.088;13.446;2023-05-13T07:29:59;19.10;96.00
10143;DHT22;5112;54.088;13.446;2023-05-13T07:40:01;19.50;94.80
10143;DHT22;5112;54.088;13.446;2023-05-13T07:50:05;19.70;98.00
10143;DHT22;5112;54.088;13.446;2023-05-13T08:00:08;19.80;97.20
10143;DHT22;5112;54.088;13.446;2023-05-13T08:10:11;20.00;95.40
10143;DHT22;5112;54.088;13.446;2023-05-13T08:20:13;20.20;94.80
10143;DHT22;5112;54.088;13.446;2023-05-13T08:30:16;20.70;88.20
10143;DHT22;5112;54.088;13.446;2023-05-13T08:40:18;21.10;80.50
10143;DHT22;5112;54.088;13.446;2023-05-13T08:50:22;21.40;81.10
10143;DHT22;5112;54.088;13.446;2023-05-13T09:00:23;21.70;70.20
10143;DHT22;5112;54.088;13.446;2023-05-13T09:10:27;22.10;72.10
10143;DHT22;5112;54.088;13.446;2023-05-13T09:20:29;22.20;69.50
10143;DHT22;5112;54.088;13.446;2023-05-13T09:30:34;22.00;65.30
10143;DHT22;5112;54.088;13.446;2023-05-13T09:40:37;22.30;67.30
10143;DHT22;5112;54.088;13.446;2023-05-13T09:50:46;22.40;67.10
10143;DHT22;5112;54.088;13.446;2023-05-13T10:00:50;22.70;64.50
10143;DHT22;5112;54.088;13.446;2023-05-13T10:10:54;22.40;59.70
10143;DHT22;5112;54.088;13.446;2023-05-13T10:20:56;22.80;59.30
10143;DHT22;5112;54.088;13.446;2023-05-13T10:30:59;22.60;60.60
10143;DHT22;5112;54.088;13.446;2023-05-13T10:41:08;23.20;60.60
10143;DHT22;5112;54.088;13.446;2023-05-13T10:51:15;22.70;57.60
10143;DHT22;5112;54.088;13.446;2023-05-13T11:01:20;23.40;59.40
10143;DHT22;5112;54.088;13.446;2023-05-13T11:11:29;23.50;57.90
10143;DHT22;5112;54.088;13.446;2023-05-13T11:21:34;23.10;58.20
10143;DHT22;5112;54.088;13.446;2023-05-13T11:31:45;23.70;62.80
10143;DHT22;5112;54.088;13.446;2023-05-13T11:41:48;23.60;74.10
10143;DHT22;5112;54.088;13.446;2023-05-13T11:51:52;23.20;74.40
10143;DHT22;5112;54.088;13.446;2023-05-13T12:02:00;22.90;74.80
10143;DHT22;5112;54.088;13.446;2023-05-13T12:12:04;22.60;75.70
10143;DHT22;5112;54.088;13.446;2023-05-13T12:22:06;22.20;78.00
10143;DHT22;5112;54.088;13.446;2023-05-13T12:32:10;22.70;74.90
10143;DHT22;5112;54.088;13.446;2023-05-13T12:42:13;22.60;74.70
10143;DHT22;5112;54.088;13.446;2023-05-13T12:52:17;22.50;77.80
10143;DHT22;5112;54.088;13.446;2023-05-13T13:02:18;22.10;76.40
10143;DHT22;5112;54.088;13.446;2023-05-13T13:12:21;22.10;73.40
10143;DHT22;5112;54.088;13.446;2023-05-13T13:22:23;22.10;76.80
10143;DHT22;5112;54.088;13.446;2023-05-13T13:32:26;22.30;80.60
10143;DHT22;5112;54.088;13.446;2023-05-13T13:42:28;22.30;82.90
10143;DHT22;5112;54.088;13.446;2023-05-13T13:52:31;22.40;83.40
10143;DHT22;5112;54.088;13.446;2023-05-13T14:02:32;21.70;86.30
10143;DHT22;5112;54.088;13.446;2023-05-13T14:12:36;21.00;90.00
10143;DHT22;5112;54.088;13.446;2023-05-13T14:22:37;21.70;89.40
10143;DHT22;5112;54.088;13.446;2023-05-13T14:32:41;21.20;89.20
10143;DHT22;5112;54.088;13.446;2023-05-13T14:42:44;21.00;91.10
10143;DHT22;5112;54.088;13.446;2023-05-13T14:52:47;20.30;91.00
10143;DHT22;5112;54.088;13.446;2023-05-13T15:02:48;19.50;93.70
10143;DHT22;5112;54.088;13.446;2023-05-13T15:12:51;19.30;94.40
10143;DHT22;5112;54.088;13.446;2023-05-13T15:22:54;19.70;94.60
10143;DHT22;5112;54.088;13.446;2023-05-13T15:32:58;19.50;94.80
10143;DHT22;5112;54.088;13.446;2023-05-13T15:43:00;19.50;94.90
10143;DHT22;5112;54.088;13.446;2023-05-13T15:53:03;19.40;95.40
10143;DHT22;5112;54.088;13.446;2023-05-13T16:03:04;19.00;96.60
10143;DHT22;5112;54.088;13.446;2023-05-13T16:13:08;19.20;97.10
10143;DHT22;5112;54.088;13.446;2023-05-13T16:23:09;18.80;97.50
10143;DHT22;5112;54.088;13.446;2023-05-13T16:33:12;18.40;99.40
10143;DHT22;5112;54.088;13.446;2023-05-13T16:43:15;18.70;98.30
10143;DHT22;5112;54.088;13.446;2023-05-13T16:53:18;18.60;98.50
10143;DHT22;5112;54.088;13.446;2023-05-13T17:03:21;18.30;99.90
10143;DHT22;5112;54.088;13.446;2023-05-13T17:13:24;17.80;99.90
10143;DHT22;5112;54.088;13.446;2023-05-13T17:23:26;17.70;99.90
10143;DHT22;5112;54.088;13.446;2023-05-13T17:33:29;18.00;99.90
10143;DHT22;5112;54.088;13.446;2023-05-13T17:43:30;17.50;99.90
10143;DHT22;5112;54.088;13.446;2023-05-13T17:53:33;17.40;99.90
10143;DHT22;5112;54.088;13.446;2023-05-13T18:03:35;17.60;99.90
10143;DHT22;5112;54.088;13.446;2023-05-13T18:13:38;17.20;99.90
10143;DHT22;5112;54.088;13.446;2023-05-13T18:23:40;16.90;99.90
10143;DHT22;5112;54.088;13.446;2023-05-13T18:33:44;16.90;99.90
10143;DHT22;5112;54.088;13.446;2023-05-13T18:43:46;16.30;99.90
10143;DHT22;5112;54.088;13.446;2023-05-13T18:53:49;15.70;99.90
10143;DHT22;5112;54.088;13.446;2023-05-13T19:03:51;15.20;99.90
10143;DHT22;5112;54.088;13.446;2023-05-13T19:13:54;14.70;99.90
10143;DHT22;5112;54.088;13.446;2023-05-13T19:23:57;14.40;99.90
10143;DHT22;5112;54.088;13.446;2023-05-13T19:34:00;14.10;99.90
10143;DHT22;5112;54.088;13.446;2023-05-13T19:44:02;13.90;99.90
10143;DHT22;5112;54.088;13.446;2023-05-13T19:54:05;13.70;99.90
10143;DHT22;5112;54.088;13.446;2023-05-13T20:04:10;13.60;99.90
10143;DHT22;5112;54.088;13.446;2023-05-13T20:14:13;13.50;99.90
10143;DHT22;5112;54.088;13.446;2023-05-13T20:24:16;13.30;99.90
10143;DHT22;5112;54.088;13.446;2023-05-13T20:34:19;13.20;99.90
10143;DHT22;5112;54.088;13.446;2023-05-13T20:44:21;13.10;99.90
10143;DHT22;5112;54.088;13.446;2023-05-13T20:54:24;12.90;99.90
10143;DHT22;5112;54.088;13.446;2023-05-13T21:04:26;12.70;99.90
10143;DHT22;5112;54.088;13.446;2023-05-13T21:14:29;12.70;99.90
10143;DHT22;5112;54.088;13.446;2023-05-13T21:24:31;12.60;99.90
10143;DHT22;5112;54.088;13.446;2023-05-13T21:34:34;12.30;99.90
10143;DHT22;5112;54.088;13.446;2023-05-13T21:44:36;11.90;99.90
10143;DHT22;5112;54.088;13.446;2023-05-13T21:54:39;11.80;99.90
10143;DHT22;5112;54.088;13.446;2023-05-13T22:04:40;11.40;99.90
10143;DHT22;5112;54.088;13.446;2023-05-13T22:14:43;11.30;99.90
10143;DHT22;5112;54.088;13.446;2023-05-13T22:24:45;11.20;99.90
10143;DHT22;5112;54.088;13.446;2023-05-13T22:34:48;10.70;99.90
10143;DHT22;5112;54.088;13.446;2023-05-13T22:44:50;10.70;99.90
10143;DHT22;5112;54.088;13.446;2023-05-13T22:54:53;10.70;99.90
10143;DHT22;5112;54.088;13.446;2023-05-13T23:04:55;10.50;99.90
10143;DHT22;5112;54.088;13.446;2023-05-13T23:14:58;10.50;99.90
10143;DHT22;5112;54.088;13.446;2023-05-13T23:25:00;10.10;99.90
10143;DHT22;5112;54.088;13.446;2023-05-13T23:35:03;10.00;99.90
10143;DHT22;5112;54.088;13.446;2023-05-13T23:45:06;9.90;99.90
10143;DHT22;5112;54.088;13.446;2023-05-13T23:55:09;9.80;99.90
